sensor_id;sensor_type;location;lat;lon;timestamp;temperature;humidity
55135;DHT22;41031;44.750;11.308;2023-06-22T00:00:15;25.90;82.90
55135;DHT22;41031;44.750;11.308;2023-06-22T00:02:42;25.90;83.20
55135;DHT22;41031;44.750;11.308;2023-06-22T00:05:09;25.90;83.30
55135;DHT22;41031;44.750;11.308;2023-06-22T00:07:36;25.90;83.20
55135;DHT22;41031;44.750;11.308;2023-06-22T00:10:04;25.80;83.30
55135;DHT22;41031;44.750;11.308;2023-06-22T00:12:31;25.80;83.30
55135;DHT22;41031;44.750;11.308;2023-06-22T00:14:59;25.80;83.50
55135;DHT22;41031;44.750;11.308;2023-06-22T00:17:26;25.70;83.50
55135;DHT22;41031;44.750;11.308;2023-06-22T00:19:53;25.70;83.60
55135;DHT22;41031;44.750;11.308;2023-06-22T00:22:22;25.70;83.70
55135;DHT22;41031;44.750;11.308;2023-06-22T00:24:56;25.60;83.90
55135;DHT22;41031;44.750;11.308;2023-06-22T00:27:23;25.60;84.00
55135;DHT22;41031;44.750;11.308;2023-06-22T00:29:50;25.60;84.10
55135;DHT22;41031;44.750;11.308;2023-06-22T00:32:18;25.60;84.20
55135;DHT22;41031;44.750;11.308;2023-06-22T00:34:47;25.50;84.30
55135;DHT22;41031;44.750;11.308;2023-06-22T00:37:14;25.50;84.50
55135;DHT22;41031;44.750;11.308;2023-06-22T00:39:42;25.40;84.70
55135;DHT22;41031;44.750;11.308;2023-06-22T00:42:10;25.40;84.90
55135;DHT22;41031;44.750;11.308;2023-06-22T00:44:37;25.40;85.10
55135;DHT22;41031;44.750;11.308;2023-06-22T00:47:05;25.40;85.20
55135;DHT22;41031;44.750;11.308;2023-06-22T00:49:33;25.40;85.40
55135;DHT22;41031;44.750;11.308;2023-06-22T00:52:00;25.40;85.50
55135;DHT22;41031;44.750;11.308;2023-06-22T00:54:28;25.30;85.60
55135;DHT22;41031;44.750;11.308;2023-06-22T00:56:55;25.30;85.80
55135;DHT22;41031;44.750;11.308;2023-06-22T00:59:24;25.30;85.90
55135;DHT22;41031;44.750;11.308;2023-06-22T01:01:53;25.30;86.20
55135;DHT22;41031;44.750;11.308;2023-06-22T01:04:24;25.20;86.10
55135;DHT22;41031;44.750;11.308;2023-06-22T01:07:13;25.20;86.20
55135;DHT22;41031;44.750;11.308;2023-06-22T01:10:51;25.20;86.50
55135;DHT22;41031;44.750;11.308;2023-06-22T01:13:02;25.10;86.30
55135;DHT22;41031;44.750;11.308;2023-06-22T01:15:37;25.10;86.40
55135;DHT22;41031;44.750;11.308;2023-06-22T01:18:07;25.10;86.50
55135;DHT22;41031;44.750;11.308;2023-06-22T01:20:36;25.10;86.60
55135;DHT22;41031;44.750;11.308;2023-06-22T01:23:26;25.00;86.50
55135;DHT22;41031;44.750;11.308;2023-06-22T01:28:53;25.00;87.00
55135;DHT22;41031;44.750;11.308;2023-06-22T01:31:26;25.00;87.20
55135;DHT22;41031;44.750;11.308;2023-06-22T01:34:02;25.00;87.10
55135;DHT22;41031;44.750;11.308;2023-06-22T01:36:32;25.00;87.20
55135;DHT22;41031;44.750;11.308;2023-06-22T01:39:00;25.00;87.30
55135;DHT22;41031;44.750;11.308;2023-06-22T01:41:30;25.00;87.60
55135;DHT22;41031;44.750;11.308;2023-06-22T01:43:59;24.90;87.70
55135;DHT22;41031;44.750;11.308;2023-06-22T01:46:27;24.90;87.90
55135;DHT22;41031;44.750;11.308;2023-06-22T01:48:54;25.00;88.10
55135;DHT22;41031;44.750;11.308;2023-06-22T01:51:22;25.00;88.10
55135;DHT22;41031;44.750;11.308;2023-06-22T01:53:49;25.00;88.20
55135;DHT22;41031;44.750;11.308;2023-06-22T01:56:18;25.00;88.30
55135;DHT22;41031;44.750;11.308;2023-06-22T01:58:59;24.90;88.60
55135;DHT22;41031;44.750;11.308;2023-06-22T02:01:33;24.90;88.70
55135;DHT22;41031;44.750;11.308;2023-06-22T02:04:06;24.90;88.80
55135;DHT22;41031;44.750;11.308;2023-06-22T02:06:40;24.90;88.90
55135;DHT22;41031;44.750;11.308;2023-06-22T02:09:15;24.90;88.90
55135;DHT22;41031;44.750;11.308;2023-06-22T02:11:46;24.90;88.90
55135;DHT22;41031;44.750;11.308;2023-06-22T02:14:14;24.80;89.00
55135;DHT22;41031;44.750;11.308;2023-06-22T02:16:46;24.80;89.30
55135;DHT22;41031;44.750;11.308;2023-06-22T02:19:13;24.80;89.40
55135;DHT22;41031;44.750;11.308;2023-06-22T02:21:45;24.80;89.50
55135;DHT22;41031;44.750;11.308;2023-06-22T02:24:12;24.70;89.60
55135;DHT22;41031;44.750;11.308;2023-06-22T02:26:40;24.70;89.70
55135;DHT22;41031;44.750;11.308;2023-06-22T02:29:09;24.70;89.70
55135;DHT22;41031;44.750;11.308;2023-06-22T02:31:36;24.70;89.80
55135;DHT22;41031;44.750;11.308;2023-06-22T02:34:03;24.70;89.70
55135;DHT22;41031;44.750;11.308;2023-06-22T02:36:30;24.70;89.90
55135;DHT22;41031;44.750;11.308;2023-06-22T02:39:00;24.70;89.90
55135;DHT22;41031;44.750;11.308;2023-06-22T02:41:29;24.70;89.90
55135;DHT22;41031;44.750;11.308;2023-06-22T02:43:57;24.70;90.00
55135;DHT22;41031;44.750;11.308;2023-06-22T02:46:24;24.70;89.90
55135;DHT22;41031;44.750;11.308;2023-06-22T02:48:52;24.60;90.00
55135;DHT22;41031;44.750;11.308;2023-06-22T02:51:19;24.60;90.00
55135;DHT22;41031;44.750;11.308;2023-06-22T02:53:47;24.60;90.00
55135;DHT22;41031;44.750;11.308;2023-06-22T02:56:15;24.60;90.00
55135;DHT22;41031;44.750;11.308;2023-06-22T02:58:44;24.60;89.90
55135;DHT22;41031;44.750;11.308;2023-06-22T03:01:12;24.50;89.90
55135;DHT22;41031;44.750;11.308;2023-06-22T03:03:44;24.50;90.10
55135;DHT22;41031;44.750;11.308;2023-06-22T03:06:12;24.50;90.10
55135;DHT22;41031;44.750;11.308;2023-06-22T03:08:41;24.40;90.10
55135;DHT22;41031;44.750;11.308;2023-06-22T03:11:09;24.40;90.20
55135;DHT22;41031;44.750;11.308;2023-06-22T03:13:36;24.30;90.20
55135;DHT22;41031;44.750;11.308;2023-06-22T03:16:05;24.40;90.30
55135;DHT22;41031;44.750;11.308;2023-06-22T03:18:32;24.30;90.30
55135;DHT22;41031;44.750;11.308;2023-06-22T03:20:59;24.30;90.30
55135;DHT22;41031;44.750;11.308;2023-06-22T03:23:30;24.30;90.30
55135;DHT22;41031;44.750;11.308;2023-06-22T03:25:57;24.30;90.20
55135;DHT22;41031;44.750;11.308;2023-06-22T03:28:24;24.30;90.10
55135;DHT22;41031;44.750;11.308;2023-06-22T03:30:51;24.30;90.10
55135;DHT22;41031;44.750;11.308;2023-06-22T03:33:19;24.30;90.10
55135;DHT22;41031;44.750;11.308;2023-06-22T03:35:46;24.30;90.00
55135;DHT22;41031;44.750;11.308;2023-06-22T03:38:13;24.30;90.00
55135;DHT22;41031;44.750;11.308;2023-06-22T03:40:40;24.30;90.00
55135;DHT22;41031;44.750;11.308;2023-06-22T03:43:07;24.30;90.00
55135;DHT22;41031;44.750;11.308;2023-06-22T03:45:35;24.20;90.10
55135;DHT22;41031;44.750;11.308;2023-06-22T03:48:02;24.20;90.10
55135;DHT22;41031;44.750;11.308;2023-06-22T03:50:30;24.20;90.10
55135;DHT22;41031;44.750;11.308;2023-06-22T03:52:58;24.20;90.20
55135;DHT22;41031;44.750;11.308;2023-06-22T03:55:25;24.20;90.20
55135;DHT22;41031;44.750;11.308;2023-06-22T03:57:52;24.30;90.30
55135;DHT22;41031;44.750;11.308;2023-06-22T04:00:21;24.20;90.20
55135;DHT22;41031;44.750;11.308;2023-06-22T04:02:48;24.20;90.20
55135;DHT22;41031;44.750;11.308;2023-06-22T04:05:15;24.20;90.20
55135;DHT22;41031;44.750;11.308;2023-06-22T04:07:44;24.20;90.20
55135;DHT22;41031;44.750;11.308;2023-06-22T04:10:11;24.20;90.30
55135;DHT22;41031;44.750;11.308;2023-06-22T04:12:39;24.20;90.30
55135;DHT22;41031;44.750;11.308;2023-06-22T04:15:06;24.20;90.30
55135;DHT22;41031;44.750;11.308;2023-06-22T04:17:33;24.20;90.30
55135;DHT22;41031;44.750;11.308;2023-06-22T04:20:01;24.30;90.40
55135;DHT22;41031;44.750;11.308;2023-06-22T04:22:28;24.30;90.40
55135;DHT22;41031;44.750;11.308;2023-06-22T04:24:55;24.30;90.40
55135;DHT22;41031;44.750;11.308;2023-06-22T04:27:22;24.30;90.40
55135;DHT22;41031;44.750;11.308;2023-06-22T04:29:50;24.30;90.40
55135;DHT22;41031;44.750;11.308;2023-06-22T04:32:18;24.40;90.40
55135;DHT22;41031;44.750;11.308;2023-06-22T04:34:45;24.40;90.40
55135;DHT22;41031;44.750;11.308;2023-06-22T04:37:12;24.50;90.40
55135;DHT22;41031;44.750;11.308;2023-06-22T04:39:43;24.50;90.40
55135;DHT22;41031;44.750;11.308;2023-06-22T04:42:11;24.50;90.40
55135;DHT22;41031;44.750;11.308;2023-06-22T04:44:39;24.60;90.40
55135;DHT22;41031;44.750;11.308;2023-06-22T04:47:06;24.70;90.40
55135;DHT22;41031;44.750;11.308;2023-06-22T04:49:36;24.80;90.40
55135;DHT22;41031;44.750;11.308;2023-06-22T04:54:33;24.80;90.30
55135;DHT22;41031;44.750;11.308;2023-06-22T04:57:02;24.90;90.30
55135;DHT22;41031;44.750;11.308;2023-06-22T04:59:30;25.00;90.20
55135;DHT22;41031;44.750;11.308;2023-06-22T05:01:59;25.00;90.30
55135;DHT22;41031;44.750;11.308;2023-06-22T05:04:28;25.10;90.40
55135;DHT22;41031;44.750;11.308;2023-06-22T05:06:59;25.10;90.30
55135;DHT22;41031;44.750;11.308;2023-06-22T05:09:30;25.20;90.20
55135;DHT22;41031;44.750;11.308;2023-06-22T05:11:57;25.30;90.10
55135;DHT22;41031;44.750;11.308;2023-06-22T05:14:24;25.40;90.10
55135;DHT22;41031;44.750;11.308;2023-06-22T05:16:51;25.40;90.00
55135;DHT22;41031;44.750;11.308;2023-06-22T05:19:18;25.60;89.70
55135;DHT22;41031;44.750;11.308;2023-06-22T05:21:45;25.70;89.30
55135;DHT22;41031;44.750;11.308;2023-06-22T05:24:13;25.70;88.70
55135;DHT22;41031;44.750;11.308;2023-06-22T05:26:40;25.90;88.30
55135;DHT22;41031;44.750;11.308;2023-06-22T05:29:07;25.90;87.80
55135;DHT22;41031;44.750;11.308;2023-06-22T05:31:34;26.10;87.70
55135;DHT22;41031;44.750;11.308;2023-06-22T05:34:01;26.20;87.30
55135;DHT22;41031;44.750;11.308;2023-06-22T05:36:28;26.30;87.00
55135;DHT22;41031;44.750;11.308;2023-06-22T05:38:57;26.40;86.70
55135;DHT22;41031;44.750;11.308;2023-06-22T05:41:25;26.60;86.30
55135;DHT22;41031;44.750;11.308;2023-06-22T05:43:52;26.70;85.80
55135;DHT22;41031;44.750;11.308;2023-06-22T05:46:19;26.80;85.40
55135;DHT22;41031;44.750;11.308;2023-06-22T05:48:46;27.00;85.10
55135;DHT22;41031;44.750;11.308;2023-06-22T05:51:13;27.10;84.90
55135;DHT22;41031;44.750;11.308;2023-06-22T05:53:40;27.30;84.60
55135;DHT22;41031;44.750;11.308;2023-06-22T05:56:08;27.40;83.90
55135;DHT22;41031;44.750;11.308;2023-06-22T05:58:35;27.50;83.30
55135;DHT22;41031;44.750;11.308;2023-06-22T06:01:02;27.70;82.90
55135;DHT22;41031;44.750;11.308;2023-06-22T06:03:29;27.80;82.60
55135;DHT22;41031;44.750;11.308;2023-06-22T06:05:56;27.90;82.50
55135;DHT22;41031;44.750;11.308;2023-06-22T06:08:24;28.00;82.10
55135;DHT22;41031;44.750;11.308;2023-06-22T06:10:51;28.10;81.70
55135;DHT22;41031;44.750;11.308;2023-06-22T06:13:20;28.20;81.10
55135;DHT22;41031;44.750;11.308;2023-06-22T06:15:47;28.30;80.60
55135;DHT22;41031;44.750;11.308;2023-06-22T06:18:14;28.30;80.50
55135;DHT22;41031;44.750;11.308;2023-06-22T06:20:41;28.30;80.50
55135;DHT22;41031;44.750;11.308;2023-06-22T06:23:08;28.30;80.60
55135;DHT22;41031;44.750;11.308;2023-06-22T06:25:36;28.40;80.80
55135;DHT22;41031;44.750;11.308;2023-06-22T06:28:03;28.40;80.70
55135;DHT22;41031;44.750;11.308;2023-06-22T06:30:30;28.40;80.60
55135;DHT22;41031;44.750;11.308;2023-06-22T06:32:58;28.50;80.70
55135;DHT22;41031;44.750;11.308;2023-06-22T06:35:25;28.60;80.50
55135;DHT22;41031;44.750;11.308;2023-06-22T06:37:53;28.60;80.00
55135;DHT22;41031;44.750;11.308;2023-06-22T06:40:20;28.60;79.80
55135;DHT22;41031;44.750;11.308;2023-06-22T06:42:48;28.60;79.90
55135;DHT22;41031;44.750;11.308;2023-06-22T06:45:20;28.60;79.80
55135;DHT22;41031;44.750;11.308;2023-06-22T06:47:50;28.60;80.00
55135;DHT22;41031;44.750;11.308;2023-06-22T06:50:18;28.60;80.10
55135;DHT22;41031;44.750;11.308;2023-06-22T06:52:45;28.60;80.10
55135;DHT22;41031;44.750;11.308;2023-06-22T06:55:12;28.60;80.10
55135;DHT22;41031;44.750;11.308;2023-06-22T06:57:42;28.60;80.40
55135;DHT22;41031;44.750;11.308;2023-06-22T07:00:11;28.60;80.80
55135;DHT22;41031;44.750;11.308;2023-06-22T07:02:44;28.60;80.70
55135;DHT22;41031;44.750;11.308;2023-06-22T07:05:13;28.60;80.50
55135;DHT22;41031;44.750;11.308;2023-06-22T07:07:40;28.60;80.50
55135;DHT22;41031;44.750;11.308;2023-06-22T07:10:09;28.60;80.50
55135;DHT22;41031;44.750;11.308;2023-06-22T07:12:36;28.50;80.50
55135;DHT22;41031;44.750;11.308;2023-06-22T07:15:05;28.50;80.50
55135;DHT22;41031;44.750;11.308;2023-06-22T07:17:35;28.50;80.60
55135;DHT22;41031;44.750;11.308;2023-06-22T07:20:04;28.50;80.50
55135;DHT22;41031;44.750;11.308;2023-06-22T07:22:38;28.50;80.80
55135;DHT22;41031;44.750;11.308;2023-06-22T07:25:06;28.60;80.90
55135;DHT22;41031;44.750;11.308;2023-06-22T07:27:37;28.70;81.10
55135;DHT22;41031;44.750;11.308;2023-06-22T07:30:05;28.80;80.80
55135;DHT22;41031;44.750;11.308;2023-06-22T07:32:32;28.90;80.40
55135;DHT22;41031;44.750;11.308;2023-06-22T07:34:59;29.00;80.00
55135;DHT22;41031;44.750;11.308;2023-06-22T07:37:27;29.00;80.00
55135;DHT22;41031;44.750;11.308;2023-06-22T07:39:55;29.00;79.80
55135;DHT22;41031;44.750;11.308;2023-06-22T07:42:26;29.00;80.00
55135;DHT22;41031;44.750;11.308;2023-06-22T07:44:53;29.10;80.00
55135;DHT22;41031;44.750;11.308;2023-06-22T07:47:21;29.10;80.10
55135;DHT22;41031;44.750;11.308;2023-06-22T07:49:52;29.20;80.20
55135;DHT22;41031;44.750;11.308;2023-06-22T07:52:21;29.40;80.50
55135;DHT22;41031;44.750;11.308;2023-06-22T07:54:48;29.70;80.10
55135;DHT22;41031;44.750;11.308;2023-06-22T07:57:16;30.00;79.30
55135;DHT22;41031;44.750;11.308;2023-06-22T07:59:43;30.30;78.10
55135;DHT22;41031;44.750;11.308;2023-06-22T08:02:10;30.60;77.10
55135;DHT22;41031;44.750;11.308;2023-06-22T08:04:37;30.80;76.00
55135;DHT22;41031;44.750;11.308;2023-06-22T08:07:04;31.10;75.00
55135;DHT22;41031;44.750;11.308;2023-06-22T08:09:32;31.30;74.10
55135;DHT22;41031;44.750;11.308;2023-06-22T08:11:59;31.60;73.20
55135;DHT22;41031;44.750;11.308;2023-06-22T08:14:27;31.80;72.30
55135;DHT22;41031;44.750;11.308;2023-06-22T08:16:54;32.00;71.00
55135;DHT22;41031;44.750;11.308;2023-06-22T08:19:21;32.10;70.40
55135;DHT22;41031;44.750;11.308;2023-06-22T08:21:48;32.30;70.40
55135;DHT22;41031;44.750;11.308;2023-06-22T08:24:15;32.50;68.80
55135;DHT22;41031;44.750;11.308;2023-06-22T08:26:42;32.70;68.20
55135;DHT22;41031;44.750;11.308;2023-06-22T08:29:09;32.80;67.60
55135;DHT22;41031;44.750;11.308;2023-06-22T08:31:37;32.90;67.00
55135;DHT22;41031;44.750;11.308;2023-06-22T08:34:04;33.00;66.30
55135;DHT22;41031;44.750;11.308;2023-06-22T08:36:31;33.10;66.00
55135;DHT22;41031;44.750;11.308;2023-06-22T08:39:02;33.30;64.80
55135;DHT22;41031;44.750;11.308;2023-06-22T08:41:30;33.40;63.90
55135;DHT22;41031;44.750;11.308;2023-06-22T08:43:57;33.40;64.20
55135;DHT22;41031;44.750;11.308;2023-06-22T08:46:24;33.50;64.70
55135;DHT22;41031;44.750;11.308;2023-06-22T08:48:57;33.70;64.20
55135;DHT22;41031;44.750;11.308;2023-06-22T08:51:24;33.80;63.90
55135;DHT22;41031;44.750;11.308;2023-06-22T08:53:52;33.90;63.90
55135;DHT22;41031;44.750;11.308;2023-06-22T08:56:19;34.00;63.30
55135;DHT22;41031;44.750;11.308;2023-06-22T08:58:46;34.00;62.90
55135;DHT22;41031;44.750;11.308;2023-06-22T09:01:13;34.00;63.00
55135;DHT22;41031;44.750;11.308;2023-06-22T09:03:42;34.10;63.20
55135;DHT22;41031;44.750;11.308;2023-06-22T09:06:09;34.10;63.00
55135;DHT22;41031;44.750;11.308;2023-06-22T09:08:37;34.10;62.80
55135;DHT22;41031;44.750;11.308;2023-06-22T09:11:04;34.10;63.20
55135;DHT22;41031;44.750;11.308;2023-06-22T09:13:32;34.20;61.80
55135;DHT22;41031;44.750;11.308;2023-06-22T09:15:59;34.20;61.20
55135;DHT22;41031;44.750;11.308;2023-06-22T09:18:26;34.30;61.20
55135;DHT22;41031;44.750;11.308;2023-06-22T09:20:53;34.40;60.80
55135;DHT22;41031;44.750;11.308;2023-06-22T09:23:21;34.50;59.60
55135;DHT22;41031;44.750;11.308;2023-06-22T09:25:48;34.60;59.80
55135;DHT22;41031;44.750;11.308;2023-06-22T09:28:15;34.70;58.60
55135;DHT22;41031;44.750;11.308;2023-06-22T09:30:45;34.80;58.00
55135;DHT22;41031;44.750;11.308;2023-06-22T09:33:12;34.90;58.20
55135;DHT22;41031;44.750;11.308;2023-06-22T09:35:39;35.00;57.40
55135;DHT22;41031;44.750;11.308;2023-06-22T09:38:06;35.10;56.20
55135;DHT22;41031;44.750;11.308;2023-06-22T09:40:33;35.10;55.30
55135;DHT22;41031;44.750;11.308;2023-06-22T09:43:06;35.20;55.20
55135;DHT22;41031;44.750;11.308;2023-06-22T09:45:33;35.20;55.10
55135;DHT22;41031;44.750;11.308;2023-06-22T09:48:00;35.30;55.70
55135;DHT22;41031;44.750;11.308;2023-06-22T09:50:28;35.40;56.40
55135;DHT22;41031;44.750;11.308;2023-06-22T09:52:55;35.60;56.30
55135;DHT22;41031;44.750;11.308;2023-06-22T09:55:23;35.60;56.20
55135;DHT22;41031;44.750;11.308;2023-06-22T09:57:50;35.60;55.40
55135;DHT22;41031;44.750;11.308;2023-06-22T10:00:17;35.60;55.30
55135;DHT22;41031;44.750;11.308;2023-06-22T10:02:46;35.60;56.80
55135;DHT22;41031;44.750;11.308;2023-06-22T10:05:14;35.60;55.30
55135;DHT22;41031;44.750;11.308;2023-06-22T10:07:41;35.60;55.50
55135;DHT22;41031;44.750;11.308;2023-06-22T10:10:11;35.60;55.50
55135;DHT22;41031;44.750;11.308;2023-06-22T10:12:46;35.60;56.20
55135;DHT22;41031;44.750;11.308;2023-06-22T10:15:14;35.70;56.10
55135;DHT22;41031;44.750;11.308;2023-06-22T10:17:42;35.70;55.00
55135;DHT22;41031;44.750;11.308;2023-06-22T10:20:09;35.80;55.10
55135;DHT22;41031;44.750;11.308;2023-06-22T10:22:42;35.90;54.40
55135;DHT22;41031;44.750;11.308;2023-06-22T10:25:10;36.00;54.00
55135;DHT22;41031;44.750;11.308;2023-06-22T10:27:38;36.00;54.30
55135;DHT22;41031;44.750;11.308;2023-06-22T10:30:11;36.10;54.00
55135;DHT22;41031;44.750;11.308;2023-06-22T10:32:42;36.10;52.50
55135;DHT22;41031;44.750;11.308;2023-06-22T10:35:12;36.20;53.40
55135;DHT22;41031;44.750;11.308;2023-06-22T10:37:46;36.20;53.10
55135;DHT22;41031;44.750;11.308;2023-06-22T10:40:14;36.30;52.20
55135;DHT22;41031;44.750;11.308;2023-06-22T10:42:42;36.30;51.50
55135;DHT22;41031;44.750;11.308;2023-06-22T10:45:10;36.30;51.70
55135;DHT22;41031;44.750;11.308;2023-06-22T10:47:37;36.30;49.90
55135;DHT22;41031;44.750;11.308;2023-06-22T10:50:05;36.30;50.70
55135;DHT22;41031;44.750;11.308;2023-06-22T10:52:32;36.40;51.10
55135;DHT22;41031;44.750;11.308;2023-06-22T10:54:59;36.50;51.10
55135;DHT22;41031;44.750;11.308;2023-06-22T10:57:26;36.60;51.90
55135;DHT22;41031;44.750;11.308;2023-06-22T10:59:53;36.70;51.90
55135;DHT22;41031;44.750;11.308;2023-06-22T11:02:21;36.70;52.30
55135;DHT22;41031;44.750;11.308;2023-06-22T11:04:48;36.70;52.70
55135;DHT22;41031;44.750;11.308;2023-06-22T11:07:15;36.70;49.80
55135;DHT22;41031;44.750;11.308;2023-06-22T11:09:45;36.70;51.90
55135;DHT22;41031;44.750;11.308;2023-06-22T11:12:12;36.80;53.10
55135;DHT22;41031;44.750;11.308;2023-06-22T11:14:39;36.90;53.20
55135;DHT22;41031;44.750;11.308;2023-06-22T11:17:06;36.90;50.20
55135;DHT22;41031;44.750;11.308;2023-06-22T11:19:33;36.90;50.50
55135;DHT22;41031;44.750;11.308;2023-06-22T11:22:00;36.80;49.80
55135;DHT22;41031;44.750;11.308;2023-06-22T11:24:28;36.80;49.80
55135;DHT22;41031;44.750;11.308;2023-06-22T11:26:55;36.90;49.70
55135;DHT22;41031;44.750;11.308;2023-06-22T11:29:25;36.80;49.40
55135;DHT22;41031;44.750;11.308;2023-06-22T11:32:04;36.80;49.20
55135;DHT22;41031;44.750;11.308;2023-06-22T11:34:32;36.80;48.60
55135;DHT22;41031;44.750;11.308;2023-06-22T11:36:59;36.80;48.90
55135;DHT22;41031;44.750;11.308;2023-06-22T11:39:26;36.80;49.30
55135;DHT22;41031;44.750;11.308;2023-06-22T11:42:07;36.80;49.30
55135;DHT22;41031;44.750;11.308;2023-06-22T11:44:35;36.90;49.10
55135;DHT22;41031;44.750;11.308;2023-06-22T11:47:02;36.90;48.60
55135;DHT22;41031;44.750;11.308;2023-06-22T11:49:31;37.00;49.10
55135;DHT22;41031;44.750;11.308;2023-06-22T11:51:58;37.00;49.40
55135;DHT22;41031;44.750;11.308;2023-06-22T11:54:25;37.10;49.20
55135;DHT22;41031;44.750;11.308;2023-06-22T11:56:52;37.10;49.60
55135;DHT22;41031;44.750;11.308;2023-06-22T11:59:20;37.00;49.40
55135;DHT22;41031;44.750;11.308;2023-06-22T12:01:49;37.10;49.70
55135;DHT22;41031;44.750;11.308;2023-06-22T12:04:18;37.20;49.20
55135;DHT22;41031;44.750;11.308;2023-06-22T12:06:45;37.20;49.70
55135;DHT22;41031;44.750;11.308;2023-06-22T12:09:13;37.20;49.30
55135;DHT22;41031;44.750;11.308;2023-06-22T12:11:40;37.20;49.00
55135;DHT22;41031;44.750;11.308;2023-06-22T12:14:07;37.20;49.60
55135;DHT22;41031;44.750;11.308;2023-06-22T12:16:34;37.30;49.70
55135;DHT22;41031;44.750;11.308;2023-06-22T12:19:01;37.40;49.50
55135;DHT22;41031;44.750;11.308;2023-06-22T12:21:29;37.40;48.20
55135;DHT22;41031;44.750;11.308;2023-06-22T12:23:56;37.50;45.90
55135;DHT22;41031;44.750;11.308;2023-06-22T12:26:23;37.50;46.30
55135;DHT22;41031;44.750;11.308;2023-06-22T12:28:50;37.40;47.00
55135;DHT22;41031;44.750;11.308;2023-06-22T12:31:17;37.40;46.30
55135;DHT22;41031;44.750;11.308;2023-06-22T12:33:44;37.40;47.50
55135;DHT22;41031;44.750;11.308;2023-06-22T12:36:11;37.30;47.30
55135;DHT22;41031;44.750;11.308;2023-06-22T12:38:38;37.30;47.00
55135;DHT22;41031;44.750;11.308;2023-06-22T12:41:05;37.20;46.80
55135;DHT22;41031;44.750;11.308;2023-06-22T12:43:32;37.20;48.20
55135;DHT22;41031;44.750;11.308;2023-06-22T12:45:59;37.20;49.30
55135;DHT22;41031;44.750;11.308;2023-06-22T12:48:27;37.20;48.30
55135;DHT22;41031;44.750;11.308;2023-06-22T12:50:54;37.20;48.60
55135;DHT22;41031;44.750;11.308;2023-06-22T12:53:22;37.10;49.20
55135;DHT22;41031;44.750;11.308;2023-06-22T12:55:50;37.00;49.60
55135;DHT22;41031;44.750;11.308;2023-06-22T12:58:17;37.00;49.00
55135;DHT22;41031;44.750;11.308;2023-06-22T13:00:44;36.90;50.00
55135;DHT22;41031;44.750;11.308;2023-06-22T13:03:12;36.90;48.20
55135;DHT22;41031;44.750;11.308;2023-06-22T13:05:39;36.90;47.30
55135;DHT22;41031;44.750;11.308;2023-06-22T13:08:06;36.90;47.60
55135;DHT22;41031;44.750;11.308;2023-06-22T13:10:33;37.00;48.10
55135;DHT22;41031;44.750;11.308;2023-06-22T13:13:00;36.90;49.20
55135;DHT22;41031;44.750;11.308;2023-06-22T13:15:28;36.90;49.00
55135;DHT22;41031;44.750;11.308;2023-06-22T13:17:56;37.00;47.50
55135;DHT22;41031;44.750;11.308;2023-06-22T13:20:23;37.00;48.80
55135;DHT22;41031;44.750;11.308;2023-06-22T13:22:50;37.10;49.20
55135;DHT22;41031;44.750;11.308;2023-06-22T13:25:17;37.20;49.60
55135;DHT22;41031;44.750;11.308;2023-06-22T13:27:46;37.20;47.80
55135;DHT22;41031;44.750;11.308;2023-06-22T13:30:14;37.20;46.10
55135;DHT22;41031;44.750;11.308;2023-06-22T13:32:42;37.10;48.20
55135;DHT22;41031;44.750;11.308;2023-06-22T13:35:10;37.10;48.70
55135;DHT22;41031;44.750;11.308;2023-06-22T13:37:37;37.10;49.60
55135;DHT22;41031;44.750;11.308;2023-06-22T13:40:06;37.10;48.70
55135;DHT22;41031;44.750;11.308;2023-06-22T13:42:33;37.20;47.70
55135;DHT22;41031;44.750;11.308;2023-06-22T13:45:01;37.20;48.20
55135;DHT22;41031;44.750;11.308;2023-06-22T13:47:29;37.20;48.00
55135;DHT22;41031;44.750;11.308;2023-06-22T13:49:58;37.20;48.00
55135;DHT22;41031;44.750;11.308;2023-06-22T13:52:25;37.20;47.70
55135;DHT22;41031;44.750;11.308;2023-06-22T13:54:52;37.20;48.10
55135;DHT22;41031;44.750;11.308;2023-06-22T13:57:20;37.20;47.50
55135;DHT22;41031;44.750;11.308;2023-06-22T13:59:47;37.20;47.40
55135;DHT22;41031;44.750;11.308;2023-06-22T14:02:14;37.10;47.90
55135;DHT22;41031;44.750;11.308;2023-06-22T14:04:41;37.00;47.60
55135;DHT22;41031;44.750;11.308;2023-06-22T14:07:08;36.90;48.10
55135;DHT22;41031;44.750;11.308;2023-06-22T14:09:35;36.80;49.10
55135;DHT22;41031;44.750;11.308;2023-06-22T14:12:06;36.70;50.60
55135;DHT22;41031;44.750;11.308;2023-06-22T14:14:34;36.70;49.00
55135;DHT22;41031;44.750;11.308;2023-06-22T14:17:01;36.70;48.30
55135;DHT22;41031;44.750;11.308;2023-06-22T14:19:28;36.60;47.20
55135;DHT22;41031;44.750;11.308;2023-06-22T14:21:55;36.50;47.80
55135;DHT22;41031;44.750;11.308;2023-06-22T14:24:23;36.40;48.10
55135;DHT22;41031;44.750;11.308;2023-06-22T14:26:54;36.40;50.20
55135;DHT22;41031;44.750;11.308;2023-06-22T14:29:22;36.40;50.20
55135;DHT22;41031;44.750;11.308;2023-06-22T14:31:49;36.40;49.50
55135;DHT22;41031;44.750;11.308;2023-06-22T14:34:16;36.40;50.40
55135;DHT22;41031;44.750;11.308;2023-06-22T14:36:44;36.30;50.40
55135;DHT22;41031;44.750;11.308;2023-06-22T14:39:11;36.20;48.70
55135;DHT22;41031;44.750;11.308;2023-06-22T14:41:38;36.20;48.10
55135;DHT22;41031;44.750;11.308;2023-06-22T14:44:05;36.10;50.30
55135;DHT22;41031;44.750;11.308;2023-06-22T14:46:32;36.10;51.40
55135;DHT22;41031;44.750;11.308;2023-06-22T14:48:59;36.00;52.20
55135;DHT22;41031;44.750;11.308;2023-06-22T14:51:26;36.00;50.30
55135;DHT22;41031;44.750;11.308;2023-06-22T14:53:54;36.00;50.20
55135;DHT22;41031;44.750;11.308;2023-06-22T14:56:20;35.90;51.20
55135;DHT22;41031;44.750;11.308;2023-06-22T14:58:48;35.80;50.40
55135;DHT22;41031;44.750;11.308;2023-06-22T15:01:18;35.70;51.80
55135;DHT22;41031;44.750;11.308;2023-06-22T15:03:45;35.50;51.90
55135;DHT22;41031;44.750;11.308;2023-06-22T15:06:12;35.40;50.00
55135;DHT22;41031;44.750;11.308;2023-06-22T15:08:40;35.40;51.20
55135;DHT22;41031;44.750;11.308;2023-06-22T15:11:08;35.30;52.90
55135;DHT22;41031;44.750;11.308;2023-06-22T15:13:39;35.20;55.10
55135;DHT22;41031;44.750;11.308;2023-06-22T15:16:06;35.10;57.00
55135;DHT22;41031;44.750;11.308;2023-06-22T15:18:34;35.10;57.30
55135;DHT22;41031;44.750;11.308;2023-06-22T15:21:03;35.00;57.30
55135;DHT22;41031;44.750;11.308;2023-06-22T15:23:31;35.00;56.90
55135;DHT22;41031;44.750;11.308;2023-06-22T15:25:59;35.00;57.00